Time;durP1;ratioP1;P1;durP2;ratioP2;P2;SDS_P1;SDS_P2;PMS_P1;PMS_P2;Temp;Humidity;BMP_temperature;BMP_pressure;BME280_temperature;BME280_humidity;BME280_pressure;Samples;Min_cycle;Max_cycle;Signal;HPM_P1;HPM_P2
2024/03/07 00:01:37;;;;;;;21.27;14.13;;;;;;;;;;6256104;28;20109;-77
2024/03/07 00:04:40;;;;;;;27.50;15.82;;;;;;;;;;6247180;28;20281;-77
2024/03/07 00:07:44;;;;;;;23.38;13.82;;;;;;;;;;6267643;28;20052;-77
2024/03/07 00:10:47;;;;;;;26.77;15.55;;;;;;;;;;6248854;28;20164;-76
2024/03/07 00:13:50;;;;;;;26.73;14.68;;;;;;;;;;6217740;28;20075;-76
2024/03/07 00:16:53;;;;;;;23.98;13.98;;;;;;;;;;6248281;28;20044;-76
2024/03/07 00:19:56;;;;;;;24.17;15.02;;;;;;;;;;6246832;28;20821;-76
2024/03/07 00:22:58;;;;;;;28.08;14.35;;;;;;;;;;6260611;28;20048;-76
2024/03/07 00:26:00;;;;;;;21.65;13.23;;;;;;;;;;6221687;28;20060;-76
2024/03/07 00:29:03;;;;;;;21.50;13.40;;;;;;;;;;6224552;28;20048;-76
2024/03/07 00:32:05;;;;;;;22.83;13.68;;;;;;;;;;6244243;28;20056;-76
2024/03/07 00:35:10;;;;;;;22.25;14.30;;;;;;;;;;6249226;28;20213;-76
2024/03/07 00:38:13;;;;;;;;;;;;;;;;;;6266307;28;20048;-76
2024/03/07 00:41:17;;;;;;;16.63;11.10;;;;;;;;;;6255975;28;19932;-76
2024/03/07 00:44:20;;;;;;;22.38;12.60;;;;;;;;;;6254750;28;20078;-76
2024/03/07 00:47:23;;;;;;;24.08;12.48;;;;;;;;;;6238218;28;20077;-76
2024/03/07 00:50:27;;;;;;;20.65;12.32;;;;;;;;;;6262636;28;20048;-76
2024/03/07 00:53:30;;;;;;;19.88;11.25;;;;;;;;;;6265542;28;20109;-76
2024/03/07 00:56:36;;;;;;;14.93;9.55;;;;;;;;;;6254043;28;20049;-76
2024/03/07 00:59:41;;;;;;;18.60;10.88;;;;;;;;;;6257104;28;20044;-76
2024/03/07 01:02:44;;;;;;;20.65;10.85;;;;;;;;;;6233082;28;20128;-74
2024/03/07 01:05:46;;;;;;;17.40;10.43;;;;;;;;;;6243649;28;20041;-76
2024/03/07 01:08:48;;;;;;;18.27;10.05;;;;;;;;;;6235588;28;20094;-75
2024/03/07 01:11:50;;;;;;;15.90;10.13;;;;;;;;;;6229101;28;20061;-77
2024/03/07 01:15:00;;;;;;;16.13;10.68;;;;;;;;;;6249524;28;20036;-76
2024/03/07 01:18:03;;;;;;;18.42;10.48;;;;;;;;;;6251573;28;20124;-76
2024/03/07 01:21:06;;;;;;;17.17;10.05;;;;;;;;;;6251088;28;20169;-76
2024/03/07 01:24:09;;;;;;;17.83;11.30;;;;;;;;;;6247128;28;20151;-76
2024/03/07 01:27:11;;;;;;;17.65;11.38;;;;;;;;;;6248242;28;20731;-76
2024/03/07 01:30:13;;;;;;;15.23;10.52;;;;;;;;;;6230465;28;20046;-76
2024/03/07 01:33:16;;;;;;;18.50;10.93;;;;;;;;;;6239952;28;20049;-76
2024/03/07 01:36:19;;;;;;;17.63;10.73;;;;;;;;;;6260408;28;20044;-76
2024/03/07 01:39:23;;;;;;;18.52;11.65;;;;;;;;;;6250721;28;20768;-76
2024/03/07 01:42:26;;;;;;;19.27;11.07;;;;;;;;;;6258632;28;20053;-76
2024/03/07 01:45:28;;;;;;;17.63;10.50;;;;;;;;;;6257551;28;20044;-77
2024/03/07 01:48:31;;;;;;;21.45;12.32;;;;;;;;;;6259243;28;20041;-76
2024/03/07 01:51:35;;;;;;;17.58;11.07;;;;;;;;;;6241673;28;20041;-76
2024/03/07 01:54:38;;;;;;;18.95;11.57;;;;;;;;;;6261258;28;20040;-76
2024/03/07 01:57:40;;;;;;;18.30;11.13;;;;;;;;;;6271827;28;20951;-76
2024/03/07 02:00:43;;;;;;;17.65;11.18;;;;;;;;;;6235007;28;21128;-76
2024/03/07 02:03:47;;;;;;;22.10;12.35;;;;;;;;;;6259669;28;20724;-76
2024/03/07 02:06:50;;;;;;;20.42;11.23;;;;;;;;;;6252783;28;20048;-76
2024/03/07 02:10:03;;;;;;;22.42;11.88;;;;;;;;;;6252955;28;20051;-76
2024/03/07 02:13:06;;;;;;;20.27;13.32;;;;;;;;;;6248026;28;20089;-76
2024/03/07 02:16:08;;;;;;;18.77;11.32;;;;;;;;;;6239993;28;20036;-76
2024/03/07 02:19:15;;;;;;;19.60;13.05;;;;;;;;;;6248555;28;20521;-76
2024/03/07 02:22:19;;;;;;;21.63;11.95;;;;;;;;;;6253192;28;20661;-76
2024/03/07 02:25:21;;;;;;;24.45;13.05;;;;;;;;;;6239138;28;20045;-76
2024/03/07 02:28:23;;;;;;;21.75;11.20;;;;;;;;;;6254900;28;20087;-76
2024/03/07 02:31:34;;;;;;;22.20;12.27;;;;;;;;;;6253514;28;20148;-76
2024/03/07 02:34:37;;;;;;;24.00;13.73;;;;;;;;;;6246748;28;20122;-76
2024/03/07 02:37:39;;;;;;;23.00;13.77;;;;;;;;;;6242084;28;20044;-76
2024/03/07 02:40:41;;;;;;;17.70;10.82;;;;;;;;;;6259756;28;20047;-76
2024/03/07 02:43:43;;;;;;;25.90;13.23;;;;;;;;;;6248987;28;20053;-76
2024/03/07 02:46:46;;;;;;;21.10;12.50;;;;;;;;;;6274309;28;20056;-76
2024/03/07 02:49:49;;;;;;;18.25;10.85;;;;;;;;;;6259629;28;20108;-76
2024/03/07 02:52:52;;;;;;;14.85;9.23;;;;;;;;;;6245440;28;20057;-75
2024/03/07 02:55:55;;;;;;;13.68;9.27;;;;;;;;;;6246707;28;20189;-76
2024/03/07 02:58:57;;;;;;;15.13;10.73;;;;;;;;;;6248412;28;20123;-76
2024/03/07 03:02:02;;;;;;;14.55;8.80;;;;;;;;;;6256913;28;20087;-76
2024/03/07 03:05:07;;;;;;;12.45;8.23;;;;;;;;;;6251685;28;20061;-76
2024/03/07 03:08:09;;;;;;;9.40;6.57;;;;;;;;;;6253549;28;20052;-76
2024/03/07 03:11:13;;;;;;;9.88;5.30;;;;;;;;;;6266910;28;20066;-75
2024/03/07 03:14:16;;;;;;;8.05;5.05;;;;;;;;;;6273036;28;20129;-76
2024/03/07 03:17:18;;;;;;;5.95;4.15;;;;;;;;;;6240302;28;20051;-76
2024/03/07 03:20:33;;;;;;;5.55;4.10;;;;;;;;;;6247896;28;20044;-76
2024/03/07 03:23:40;;;;;;;6.45;4.43;;;;;;;;;;6260522;28;20083;-76
2024/03/07 03:26:42;;;;;;;5.13;2.78;;;;;;;;;;6254071;28;20437;-76
2024/03/07 03:29:44;;;;;;;4.30;2.42;;;;;;;;;;6251274;28;20483;-76
2024/03/07 03:32:50;;;;;;;4.60;3.58;;;;;;;;;;6248538;28;20693;-76
2024/03/07 03:35:55;;;;;;;4.97;3.15;;;;;;;;;;6247468;28;20053;-76
2024/03/07 03:38:57;;;;;;;6.53;4.20;;;;;;;;;;6230518;28;20048;-76
2024/03/07 03:42:00;;;;;;;6.20;3.83;;;;;;;;;;6253082;28;20762;-76
2024/03/07 03:45:06;;;;;;;5.05;3.55;;;;;;;;;;6243879;28;20104;-75
2024/03/07 03:48:08;;;;;;;4.65;3.00;;;;;;;;;;6251776;28;20105;-76
2024/03/07 03:51:12;;;;;;;5.85;3.72;;;;;;;;;;6255591;28;20165;-76
2024/03/07 03:54:15;;;;;;;4.63;3.28;;;;;;;;;;6254415;28;20052;-76
2024/03/07 03:57:19;;;;;;;4.88;3.15;;;;;;;;;;6247671;28;20050;-76
2024/03/07 04:00:22;;;;;;;6.10;3.72;;;;;;;;;;6260361;28;20084;-76
2024/03/07 04:03:26;;;;;;;7.22;4.57;;;;;;;;;;6253219;28;20136;-76
2024/03/07 04:06:29;;;;;;;6.68;4.50;;;;;;;;;;6264448;28;20036;-76
2024/03/07 04:09:31;;;;;;;7.43;4.60;;;;;;;;;;6264012;28;20033;-76
2024/03/07 04:12:38;;;;;;;10.20;5.13;;;;;;;;;;6274366;28;20053;-76
2024/03/07 04:15:40;;;;;;;9.48;5.40;;;;;;;;;;6254644;28;20074;-77
2024/03/07 04:18:46;;;;;;;6.50;4.70;;;;;;;;;;6246767;28;20041;-77
2024/03/07 04:21:49;;;;;;;8.20;5.05;;;;;;;;;;6259131;28;20112;-76
2024/03/07 04:24:55;;;;;;;10.07;5.43;;;;;;;;;;6278314;28;20056;-76
2024/03/07 04:27:58;;;;;;;6.63;4.57;;;;;;;;;;6251689;28;20071;-75
2024/03/07 04:31:00;;;;;;;7.78;5.35;;;;;;;;;;6249937;28;20155;-75
2024/03/07 04:34:04;;;;;;;7.72;4.95;;;;;;;;;;6279125;28;20044;-76
2024/03/07 04:37:07;;;;;;;8.18;5.25;;;;;;;;;;6238707;28;20053;-76
2024/03/07 04:40:15;;;;;;;7.80;5.10;;;;;;;;;;6251305;28;20045;-76
2024/03/07 04:43:20;;;;;;;6.60;4.72;;;;;;;;;;6253781;28;20053;-76
2024/03/07 04:46:24;;;;;;;7.22;4.60;;;;;;;;;;6271734;28;20056;-75
2024/03/07 04:49:28;;;;;;;5.72;4.03;;;;;;;;;;6254693;28;20113;-76
2024/03/07 04:52:33;;;;;;;7.18;3.63;;;;;;;;;;6253441;28;20632;-76
2024/03/07 04:55:35;;;;;;;5.32;4.10;;;;;;;;;;6234379;28;20048;-75
2024/03/07 04:58:38;;;;;;;7.25;3.38;;;;;;;;;;6272457;28;20052;-75
2024/03/07 05:01:40;;;;;;;4.45;3.47;;;;;;;;;;6252168;28;20894;-77
2024/03/07 05:04:43;;;;;;;5.15;4.25;;;;;;;;;;6245488;28;20537;-76
2024/03/07 05:07:46;;;;;;;5.75;3.22;;;;;;;;;;6253465;28;20053;-76
2024/03/07 05:10:49;;;;;;;8.75;3.13;;;;;;;;;;6272406;28;20731;-76
2024/03/07 05:13:51;;;;;;;7.45;4.85;;;;;;;;;;6250134;28;20040;-76
2024/03/07 05:17:05;;;;;;;5.03;3.05;;;;;;;;;;6274410;28;20064;-77
2024/03/07 05:20:10;;;;;;;3.80;2.58;;;;;;;;;;6271707;28;20177;-77
2024/03/07 05:23:14;;;;;;;5.07;3.08;;;;;;;;;;6239985;28;20045;-76
2024/03/07 05:26:19;;;;;;;4.93;3.45;;;;;;;;;;6226366;28;20076;-76
2024/03/07 05:29:22;;;;;;;4.65;2.80;;;;;;;;;;6267272;28;20061;-76
2024/03/07 05:32:25;;;;;;;15.60;7.80;;;;;;;;;;6243264;28;20600;-77
2024/03/07 05:35:31;;;;;;;9.95;5.53;;;;;;;;;;6261951;28;20053;-77
2024/03/07 05:38:35;;;;;;;7.95;5.63;;;;;;;;;;6281361;28;20170;-76
2024/03/07 05:41:38;;;;;;;4.07;2.95;;;;;;;;;;6271519;28;20082;-76
2024/03/07 05:44:46;;;;;;;7.07;5.15;;;;;;;;;;6263145;28;20048;-77
2024/03/07 05:47:48;;;;;;;3.60;2.33;;;;;;;;;;6234290;28;20049;-76
2024/03/07 05:50:53;;;;;;;6.15;4.78;;;;;;;;;;6289654;28;20641;-77
2024/03/07 05:53:55;;;;;;;9.38;6.22;;;;;;;;;;6272754;28;20052;-75
2024/03/07 05:56:58;;;;;;;4.20;2.90;;;;;;;;;;6269521;28;20101;-79
2024/03/07 06:00:09;;;;;;;4.75;2.92;;;;;;;;;;6260792;28;20094;-77
2024/03/07 06:03:16;;;;;;;3.92;2.33;;;;;;;;;;6260471;28;20541;-78
2024/03/07 06:06:19;;;;;;;5.60;3.92;;;;;;;;;;6265670;28;20120;-79
2024/03/07 06:09:23;;;;;;;5.70;4.72;;;;;;;;;;6270667;28;20041;-79
2024/03/07 06:12:25;;;;;;;6.20;4.18;;;;;;;;;;6283725;28;20058;-79
2024/03/07 06:15:29;;;;;;;3.83;2.83;;;;;;;;;;6245622;28;20139;-77
2024/03/07 06:18:31;;;;;;;6.82;5.15;;;;;;;;;;6239964;28;20044;-77
2024/03/07 06:21:39;;;;;;;6.05;3.15;;;;;;;;;;6280232;28;20230;-76
2024/03/07 06:24:43;;;;;;;5.85;3.58;;;;;;;;;;6282050;28;20760;-77
2024/03/07 06:27:49;;;;;;;4.72;2.83;;;;;;;;;;6297344;28;20041;-77
2024/03/07 06:30:55;;;;;;;4.65;3.03;;;;;;;;;;6228995;28;20052;-77
2024/03/07 06:33:58;;;;;;;5.50;3.05;;;;;;;;;;6253056;28;20045;-77
2024/03/07 06:37:00;;;;;;;6.05;3.65;;;;;;;;;;6264504;28;20091;-77
2024/03/07 06:40:09;;;;;;;11.30;8.88;;;;;;;;;;6255681;28;20468;-76
2024/03/07 06:43:14;;;;;;;7.05;3.70;;;;;;;;;;6269145;28;20823;-77
2024/03/07 06:46:16;;;;;;;8.68;4.40;;;;;;;;;;6258875;28;20053;-77
2024/03/07 06:49:18;;;;;;;9.38;3.80;;;;;;;;;;6263589;28;20586;-77
2024/03/07 06:52:20;;;;;;;4.65;2.42;;;;;;;;;;6282676;28;20083;-77
2024/03/07 06:55:24;;;;;;;4.07;2.88;;;;;;;;;;6292878;28;20045;-76
2024/03/07 06:58:26;;;;;;;6.82;4.05;;;;;;;;;;6269630;28;20053;-76
2024/03/07 07:01:34;;;;;;;3.58;2.17;;;;;;;;;;6253753;28;20602;-77
2024/03/07 07:04:42;;;;;;;3.17;2.13;;;;;;;;;;6252246;28;20059;-76
2024/03/07 07:07:45;;;;;;;3.47;2.53;;;;;;;;;;6264618;28;20063;-76
2024/03/07 07:10:48;;;;;;;6.78;3.88;;;;;;;;;;6253673;28;20874;-76
2024/03/07 07:13:51;;;;;;;26.30;17.70;;;;;;;;;;6242171;28;20044;-76
2024/03/07 07:16:54;;;;;;;10.98;8.70;;;;;;;;;;6265188;28;20060;-75
2024/03/07 07:19:57;;;;;;;7.03;5.07;;;;;;;;;;6258212;28;20037;-75
2024/03/07 07:23:03;;;;;;;4.60;2.85;;;;;;;;;;6267406;28;20059;-76
2024/03/07 07:26:06;;;;;;;4.45;3.45;;;;;;;;;;6253844;28;20058;-75
2024/03/07 07:29:08;;;;;;;4.88;2.83;;;;;;;;;;6262577;28;20060;-77
2024/03/07 07:32:12;;;;;;;4.40;3.17;;;;;;;;;;6289958;28;20052;-77
2024/03/07 07:35:15;;;;;;;3.38;1.75;;;;;;;;;;6262519;28;20041;-75
2024/03/07 07:38:19;;;;;;;4.60;2.70;;;;;;;;;;6270194;28;20044;-76
2024/03/07 07:41:22;;;;;;;3.45;2.92;;;;;;;;;;6239297;28;20043;-76
2024/03/07 07:44:26;;;;;;;4.40;3.10;;;;;;;;;;6243691;28;20056;-76
2024/03/07 07:47:28;;;;;;;4.13;2.40;;;;;;;;;;6243636;28;20044;-77
2024/03/07 07:50:42;;;;;;;5.93;3.95;;;;;;;;;;6252542;28;20053;-76
2024/03/07 07:53:45;;;;;;;4.15;2.53;;;;;;;;;;6288015;28;20049;-76
2024/03/07 07:56:48;;;;;;;3.75;2.90;;;;;;;;;;6259603;28;20047;-76
2024/03/07 07:59:50;;;;;;;3.45;2.35;;;;;;;;;;6268875;28;20044;-76
2024/03/07 08:02:54;;;;;;;3.50;1.85;;;;;;;;;;6263915;28;20036;-76
2024/03/07 08:05:58;;;;;;;4.30;2.40;;;;;;;;;;6250167;28;20170;-76
2024/03/07 08:09:02;;;;;;;4.80;3.00;;;;;;;;;;6246323;28;20063;-76
2024/03/07 08:12:12;;;;;;;3.38;2.97;;;;;;;;;;6247371;28;20525;-76
2024/03/07 08:15:16;;;;;;;;;;;;;;;;;;6273498;28;20056;-76
2024/03/07 08:18:20;;;;;;;3.28;1.75;;;;;;;;;;6254208;28;19931;-76
2024/03/07 08:21:23;;;;;;;2.97;2.42;;;;;;;;;;6241257;28;20045;-76
2024/03/07 08:24:25;;;;;;;4.28;3.00;;;;;;;;;;6235010;28;20072;-76
2024/03/07 08:27:29;;;;;;;3.22;2.60;;;;;;;;;;6252162;28;20048;-76
2024/03/07 08:30:34;;;;;;;3.00;2.13;;;;;;;;;;6285725;28;20138;-76
2024/03/07 08:33:38;;;;;;;3.72;2.58;;;;;;;;;;6250503;28;20055;-76
2024/03/07 08:36:40;;;;;;;4.63;2.20;;;;;;;;;;6246381;28;20060;-75
2024/03/07 08:39:42;;;;;;;5.97;4.10;;;;;;;;;;6253775;28;20045;-76
2024/03/07 08:42:50;;;;;;;3.30;1.67;;;;;;;;;;6265726;28;20045;-76
2024/03/07 08:45:52;;;;;;;4.10;2.30;;;;;;;;;;6270399;28;20343;-76
2024/03/07 08:48:55;;;;;;;4.43;4.00;;;;;;;;;;6237793;28;20139;-77
2024/03/07 08:51:57;;;;;;;3.53;2.13;;;;;;;;;;6231457;28;20132;-77
2024/03/07 08:55:02;;;;;;;;;;;;;;;;;;6242562;28;20719;-78
2024/03/07 08:58:08;;;;;;;3.75;2.25;;;;;;;;;;6256764;28;19925;-77
2024/03/07 09:01:11;;;;;;;3.70;3.03;;;;;;;;;;6286807;28;20150;-75
2024/03/07 09:04:14;;;;;;;3.80;2.22;;;;;;;;;;6255285;28;20051;-75
2024/03/07 09:07:17;;;;;;;3.35;2.60;;;;;;;;;;6249501;28;20052;-75
2024/03/07 09:10:29;;;;;;;4.75;2.42;;;;;;;;;;6252525;28;20065;-76
2024/03/07 09:13:33;;;;;;;3.30;1.92;;;;;;;;;;6259206;28;20045;-76
2024/03/07 09:16:36;;;;;;;3.55;2.05;;;;;;;;;;6243614;28;20184;-77
2024/03/07 09:19:39;;;;;;;5.25;3.42;;;;;;;;;;6246921;28;20045;-76
2024/03/07 09:22:45;;;;;;;3.03;2.00;;;;;;;;;;6239833;28;20044;-76
2024/03/07 09:25:48;;;;;;;4.82;2.30;;;;;;;;;;6242013;28;20045;-77
2024/03/07 09:28:51;;;;;;;4.07;2.30;;;;;;;;;;6262020;28;20056;-76
2024/03/07 09:31:54;;;;;;;3.22;1.70;;;;;;;;;;6238944;28;20131;-76
2024/03/07 09:34:57;;;;;;;3.00;1.77;;;;;;;;;;6239534;28;20047;-77
2024/03/07 09:38:02;;;;;;;3.67;1.60;;;;;;;;;;6259433;28;20052;-76
2024/03/07 09:41:05;;;;;;;3.53;1.70;;;;;;;;;;6252653;28;20124;-76
2024/03/07 09:44:22;;;;;;;3.38;1.95;;;;;;;;;;6238230;28;20077;-76
2024/03/07 09:47:26;;;;;;;3.90;1.88;;;;;;;;;;6221752;28;20053;-76
2024/03/07 09:50:30;;;;;;;2.78;1.48;;;;;;;;;;6225733;28;20053;-76
2024/03/07 09:53:32;;;;;;;5.25;2.08;;;;;;;;;;6222162;28;20049;-75
2024/03/07 09:56:38;;;;;;;4.90;1.85;;;;;;;;;;6222563;28;20128;-76
2024/03/07 09:59:43;;;;;;;5.60;2.45;;;;;;;;;;6232634;28;20041;-76
2024/03/07 10:02:46;;;;;;;3.95;2.78;;;;;;;;;;6219908;28;20049;-76
2024/03/07 10:05:48;;;;;;;3.13;1.63;;;;;;;;;;6256526;28;20726;-75
2024/03/07 10:08:51;;;;;;;4.45;2.40;;;;;;;;;;6230037;28;20755;-75
2024/03/07 10:12:00;;;;;;;4.47;2.50;;;;;;;;;;6246336;28;20053;-76
2024/03/07 10:15:03;;;;;;;4.18;2.28;;;;;;;;;;6245805;28;20056;-75
2024/03/07 10:18:09;;;;;;;4.20;2.42;;;;;;;;;;6259233;28;20081;-77
2024/03/07 10:21:24;;;;;;;4.40;3.25;;;;;;;;;;6234164;28;21016;-77
2024/03/07 10:24:28;;;;;;;3.20;1.95;;;;;;;;;;6253943;28;20090;-75
2024/03/07 10:27:31;;;;;;;3.63;2.75;;;;;;;;;;6253081;28;20652;-75
2024/03/07 10:30:41;;;;;;;3.85;2.80;;;;;;;;;;6238370;28;20537;-76
2024/03/07 10:33:47;;;;;;;3.65;2.28;;;;;;;;;;6199947;28;20096;-76
2024/03/07 10:36:49;;;;;;;4.47;2.42;;;;;;;;;;6234998;28;20106;-76
2024/03/07 10:39:51;;;;;;;4.57;2.30;;;;;;;;;;6219378;28;20067;-75
2024/03/07 10:42:58;;;;;;;6.10;2.67;;;;;;;;;;6258791;28;20052;-75
2024/03/07 10:46:06;;;;;;;7.05;4.65;;;;;;;;;;6250253;28;20422;-75
2024/03/07 10:49:16;;;;;;;8.93;3.47;;;;;;;;;;6267335;28;20123;-76
2024/03/07 10:52:36;;;;;;;6.65;2.80;;;;;;;;;;6273709;28;20590;-76
2024/03/07 10:55:59;;;;;;;4.45;2.72;;;;;;;;;;6259773;28;20056;-76
2024/03/07 10:59:18;;;;;;;5.50;2.83;;;;;;;;;;6252380;28;20033;-76
2024/03/07 11:02:30;;;;;;;7.05;3.10;;;;;;;;;;6233125;28;20442;-76
2024/03/07 11:05:32;;;;;;;;;;;;;;;;;;6228789;28;20057;-75
2024/03/07 11:08:35;;;;;;;5.38;3.45;;;;;;;;;;6263502;28;20066;-75
2024/03/07 11:11:43;;;;;;;4.70;3.33;;;;;;;;;;6260005;28;20533;-75
2024/03/07 11:14:49;;;;;;;5.35;2.92;;;;;;;;;;6211576;28;20051;-77
2024/03/07 11:17:54;;;;;;;9.18;2.88;;;;;;;;;;6245062;28;20040;-76
2024/03/07 11:20:57;;;;;;;5.45;3.20;;;;;;;;;;6250203;28;20037;-76
2024/03/07 11:24:00;;;;;;;5.05;2.70;;;;;;;;;;6261348;28;20048;-75
2024/03/07 11:27:04;;;;;;;4.22;2.42;;;;;;;;;;6238774;28;20107;-75
2024/03/07 11:30:13;;;;;;;3.05;2.28;;;;;;;;;;6245203;28;20056;-74
2024/03/07 11:33:17;;;;;;;4.13;2.25;;;;;;;;;;6253511;28;20094;-75
2024/03/07 11:36:42;;;;;;;4.88;2.67;;;;;;;;;;6252354;28;20530;-76
2024/03/07 11:39:47;;;;;;;5.20;2.90;;;;;;;;;;6235182;28;20048;-76
2024/03/07 11:42:49;;;;;;;5.93;2.85;;;;;;;;;;6264281;28;20048;-76
2024/03/07 11:45:53;;;;;;;4.70;2.63;;;;;;;;;;6242155;28;20052;-76
2024/03/07 11:48:59;;;;;;;3.88;2.58;;;;;;;;;;6253635;28;20060;-76
2024/03/07 11:52:04;;;;;;;6.63;3.97;;;;;;;;;;6249911;28;20071;-74
2024/03/07 11:55:15;;;;;;;5.25;3.67;;;;;;;;;;6249826;28;20045;-76
2024/03/07 11:58:21;;;;;;;5.72;3.20;;;;;;;;;;6267040;28;20049;-76
2024/03/07 12:01:26;;;;;;;5.05;3.38;;;;;;;;;;6233527;28;20052;-76
2024/03/07 12:04:30;;;;;;;5.03;3.40;;;;;;;;;;6260346;28;20053;-76
2024/03/07 12:07:33;;;;;;;4.30;3.15;;;;;;;;;;6247332;28;20666;-75
2024/03/07 12:10:45;;;;;;;5.18;3.10;;;;;;;;;;6260417;28;20728;-76
2024/03/07 12:13:51;;;;;;;5.60;3.75;;;;;;;;;;6246698;28;20152;-75
2024/03/07 12:16:53;;;;;;;5.68;3.90;;;;;;;;;;6220562;28;20163;-76
2024/03/07 12:20:01;;;;;;;5.10;3.30;;;;;;;;;;6237310;28;20102;-75
2024/03/07 12:23:07;;;;;;;6.05;3.78;;;;;;;;;;6248057;28;20036;-76
2024/03/07 12:26:14;;;;;;;5.88;3.38;;;;;;;;;;6246637;28;20511;-75
2024/03/07 12:29:19;;;;;;;5.68;2.70;;;;;;;;;;6265507;28;20040;-77
2024/03/07 12:32:22;;;;;;;4.93;2.92;;;;;;;;;;6226283;28;20037;-78
2024/03/07 12:35:24;;;;;;;5.07;3.03;;;;;;;;;;6288271;28;20131;-76
2024/03/07 12:38:35;;;;;;;5.00;3.10;;;;;;;;;;6236236;28;20072;-75
2024/03/07 12:41:37;;;;;;;5.63;3.45;;;;;;;;;;6254262;28;20124;-74
2024/03/07 12:44:50;;;;;;;5.68;2.88;;;;;;;;;;6229079;28;20079;-76
2024/03/07 12:47:54;;;;;;;4.75;2.97;;;;;;;;;;6262308;28;20056;-75
2024/03/07 12:50:56;;;;;;;4.10;2.38;;;;;;;;;;6256264;28;20045;-76
2024/03/07 12:53:59;;;;;;;4.10;2.72;;;;;;;;;;6242580;28;20063;-75
2024/03/07 12:57:05;;;;;;;6.47;2.58;;;;;;;;;;6264368;28;20041;-75
2024/03/07 13:00:18;;;;;;;4.97;2.15;;;;;;;;;;6254378;28;20355;-76
2024/03/07 13:03:29;;;;;;;3.50;2.15;;;;;;;;;;6267918;28;20040;-76
2024/03/07 13:06:36;;;;;;;3.90;2.00;;;;;;;;;;6277244;28;20057;-80
2024/03/07 13:09:44;;;;;;;4.40;2.13;;;;;;;;;;6243834;28;20057;-78
2024/03/07 13:12:48;;;;;;;4.28;2.38;;;;;;;;;;6267051;28;20044;-76
2024/03/07 13:15:54;;;;;;;3.97;2.22;;;;;;;;;;6258244;28;20044;-77
2024/03/07 13:18:58;;;;;;;5.32;2.47;;;;;;;;;;6266493;28;20044;-75
2024/03/07 13:22:01;;;;;;;4.30;2.33;;;;;;;;;;6240409;28;20044;-78
2024/03/07 13:25:13;;;;;;;3.65;2.30;;;;;;;;;;6276049;28;20163;-78
2024/03/07 13:28:24;;;;;;;4.22;1.88;;;;;;;;;;6260886;28;20053;-75
2024/03/07 13:31:29;;;;;;;5.00;2.53;;;;;;;;;;6287247;28;20056;-75
2024/03/07 13:34:32;;;;;;;4.38;2.28;;;;;;;;;;6290180;28;20082;-77
2024/03/07 13:37:36;;;;;;;5.13;2.60;;;;;;;;;;6286891;28;20114;-75
2024/03/07 13:40:41;;;;;;;7.13;4.90;;;;;;;;;;6285637;28;20049;-77
2024/03/07 13:43:43;;;;;;;4.97;2.88;;;;;;;;;;6257938;28;20052;-75
2024/03/07 13:46:46;;;;;;;6.47;2.83;;;;;;;;;;6249480;28;20053;-76
2024/03/07 13:49:49;;;;;;;7.53;3.15;;;;;;;;;;6271220;28;20045;-77
2024/03/07 13:53:06;;;;;;;5.00;2.53;;;;;;;;;;6273566;28;20049;-76
2024/03/07 13:56:14;;;;;;;4.10;2.22;;;;;;;;;;6263398;28;20056;-75
2024/03/07 13:59:46;;;;;;;4.97;3.03;;;;;;;;;;6276310;28;20055;-76
2024/03/07 14:03:13;;;;;;;4.05;2.60;;;;;;;;;;6249609;28;20057;-74
2024/03/07 14:06:48;;;;;;;4.47;2.38;;;;;;;;;;6272691;28;20060;-74
2024/03/07 14:09:57;;;;;;;3.65;1.98;;;;;;;;;;6274706;28;20087;-75
2024/03/07 14:13:30;;;;;;;3.75;2.42;;;;;;;;;;6243778;28;20237;-73
2024/03/07 14:16:45;;;;;;;4.43;3.25;;;;;;;;;;6265845;28;20049;-77
2024/03/07 14:20:26;;;;;;;17.45;10.20;;;;;;;;;;6262827;28;20805;-74
2024/03/07 14:24:08;;;;;;;4.00;2.67;;;;;;;;;;6275321;28;20060;-75
2024/03/07 14:27:30;;;;;;;3.88;2.33;;;;;;;;;;6253120;28;20684;-75
2024/03/07 14:30:44;;;;;;;4.90;2.88;;;;;;;;;;6250128;28;20056;-73
2024/03/07 14:34:24;;;;;;;3.50;2.38;;;;;;;;;;6260435;28;20052;-77
2024/03/07 14:37:35;;;;;;;5.78;2.67;;;;;;;;;;6273022;28;20048;-76
2024/03/07 14:40:37;;;;;;;4.28;3.28;;;;;;;;;;6243259;28;20052;-75
2024/03/07 14:43:40;;;;;;;4.63;3.25;;;;;;;;;;6282939;28;20037;-76
2024/03/07 14:46:56;;;;;;;4.88;2.33;;;;;;;;;;6292139;28;20560;-77
2024/03/07 14:49:59;;;;;;;3.63;2.00;;;;;;;;;;6251123;28;20044;-75
2024/03/07 14:53:03;;;;;;;4.85;2.95;;;;;;;;;;6267737;28;20580;-76
2024/03/07 14:56:05;;;;;;;5.05;2.42;;;;;;;;;;6247553;28;20545;-74
2024/03/07 14:59:07;;;;;;;4.65;3.33;;;;;;;;;;6265834;28;20620;-75
2024/03/07 15:02:10;;;;;;;5.10;3.50;;;;;;;;;;6234723;28;20048;-77
2024/03/07 15:05:17;;;;;;;6.20;4.25;;;;;;;;;;6277438;28;20087;-75
2024/03/07 15:08:22;;;;;;;5.82;3.45;;;;;;;;;;6240914;28;20048;-75
2024/03/07 15:11:37;;;;;;;6.05;3.42;;;;;;;;;;6240294;28;20063;-76
2024/03/07 15:14:40;;;;;;;10.10;7.18;;;;;;;;;;6251763;28;20049;-75
2024/03/07 15:17:45;;;;;;;7.25;3.75;;;;;;;;;;6255598;28;20071;-74
2024/03/07 15:20:48;;;;;;;7.72;5.05;;;;;;;;;;6262719;28;20037;-74
2024/03/07 15:23:50;;;;;;;11.07;8.25;;;;;;;;;;6262363;28;20186;-74
2024/03/07 15:26:57;;;;;;;13.18;8.65;;;;;;;;;;6254454;28;20131;-75
2024/03/07 15:30:02;;;;;;;13.55;7.28;;;;;;;;;;6234213;28;20191;-75
2024/03/07 15:33:05;;;;;;;12.48;7.93;;;;;;;;;;6253500;28;20067;-75
2024/03/07 15:36:09;;;;;;;14.45;8.55;;;;;;;;;;6250503;28;20529;-75
2024/03/07 15:39:26;;;;;;;10.57;6.95;;;;;;;;;;6268184;28;20136;-75
2024/03/07 15:42:31;;;;;;;10.23;6.75;;;;;;;;;;6270200;28;20041;-75
2024/03/07 15:45:33;;;;;;;9.18;6.18;;;;;;;;;;6269179;28;20099;-74
2024/03/07 15:48:36;;;;;;;7.88;5.03;;;;;;;;;;6224184;28;20195;-74
2024/03/07 15:51:39;;;;;;;7.78;5.25;;;;;;;;;;6251020;28;20082;-75
2024/03/07 15:54:41;;;;;;;11.15;5.63;;;;;;;;;;6262723;28;20588;-74
2024/03/07 15:57:54;;;;;;;9.68;5.95;;;;;;;;;;6247206;28;20583;-73
2024/03/07 16:00:57;;;;;;;8.10;4.85;;;;;;;;;;6256418;28;20169;-75
2024/03/07 16:03:59;;;;;;;11.48;6.72;;;;;;;;;;6265630;28;20053;-76
2024/03/07 16:07:03;;;;;;;10.55;7.70;;;;;;;;;;6257389;28;20040;-75
2024/03/07 16:10:12;;;;;;;21.98;13.65;;;;;;;;;;6230953;28;20152;-76
2024/03/07 16:13:15;;;;;;;11.30;6.65;;;;;;;;;;6234867;28;20474;-75
2024/03/07 16:16:19;;;;;;;16.35;9.00;;;;;;;;;;6246732;28;20045;-74
2024/03/07 16:19:24;;;;;;;15.15;7.68;;;;;;;;;;6242658;28;20049;-75
2024/03/07 16:22:27;;;;;;;13.93;8.77;;;;;;;;;;6259128;28;20063;-75
2024/03/07 16:25:34;;;;;;;13.20;7.95;;;;;;;;;;6247850;28;20052;-76
2024/03/07 16:28:36;;;;;;;16.38;8.35;;;;;;;;;;6243966;28;20048;-76
2024/03/07 16:31:39;;;;;;;11.80;7.20;;;;;;;;;;6241010;28;20045;-75
2024/03/07 16:34:42;;;;;;;13.77;8.27;;;;;;;;;;6223551;28;20041;-76
2024/03/07 16:37:47;;;;;;;13.57;8.70;;;;;;;;;;6247327;28;20044;-74
2024/03/07 16:40:49;;;;;;;13.30;8.35;;;;;;;;;;6194058;28;20132;-75
2024/03/07 16:43:51;;;;;;;16.85;10.75;;;;;;;;;;6242147;28;20098;-75
2024/03/07 16:46:54;;;;;;;19.10;9.48;;;;;;;;;;6222897;28;20597;-75
2024/03/07 16:49:56;;;;;;;14.93;8.85;;;;;;;;;;6218982;28;20445;-76
2024/03/07 16:53:06;;;;;;;18.65;10.25;;;;;;;;;;6233721;28;20052;-76
2024/03/07 16:56:09;;;;;;;18.27;10.27;;;;;;;;;;6223176;28;20365;-76
2024/03/07 16:59:11;;;;;;;18.67;10.38;;;;;;;;;;6255468;28;20091;-76
2024/03/07 17:02:13;;;;;;;17.83;9.65;;;;;;;;;;6253194;28;20049;-76
2024/03/07 17:05:16;;;;;;;18.50;11.38;;;;;;;;;;6209559;28;20044;-75
2024/03/07 17:08:21;;;;;;;17.42;9.07;;;;;;;;;;6256689;28;20049;-75
2024/03/07 17:11:23;;;;;;;19.48;10.98;;;;;;;;;;6242198;28;20041;-75
2024/03/07 17:14:26;;;;;;;17.58;9.60;;;;;;;;;;6253993;28;20041;-75
2024/03/07 17:17:29;;;;;;;20.15;11.10;;;;;;;;;;6215755;28;20170;-76
2024/03/07 17:20:33;;;;;;;16.45;10.30;;;;;;;;;;6267409;28;20056;-76
2024/03/07 17:23:35;;;;;;;17.48;10.63;;;;;;;;;;6225172;28;20053;-76
2024/03/07 17:26:45;;;;;;;20.90;12.13;;;;;;;;;;6247285;28;20073;-76
2024/03/07 17:29:47;;;;;;;18.73;10.52;;;;;;;;;;6267010;28;20117;-75
2024/03/07 17:32:51;;;;;;;21.63;10.98;;;;;;;;;;6267936;28;20061;-77
2024/03/07 17:35:56;;;;;;;18.10;9.98;;;;;;;;;;6277427;28;20075;-75
2024/03/07 17:39:13;;;;;;;18.92;9.75;;;;;;;;;;6265415;28;20321;-75
2024/03/07 17:42:17;;;;;;;19.67;10.70;;;;;;;;;;6253757;28;20033;-76
2024/03/07 17:45:22;;;;;;;21.98;11.27;;;;;;;;;;6273212;28;20713;-76
2024/03/07 17:48:25;;;;;;;19.05;10.88;;;;;;;;;;6273043;28;20171;-77
2024/03/07 17:51:28;;;;;;;18.85;11.68;;;;;;;;;;6280852;28;20051;-76
2024/03/07 17:54:31;;;;;;;19.67;11.25;;;;;;;;;;6273907;28;20048;-77
2024/03/07 17:57:33;;;;;;;22.63;11.40;;;;;;;;;;6260344;28;20067;-76
2024/03/07 18:00:36;;;;;;;20.73;11.48;;;;;;;;;;6270668;28;20048;-76
2024/03/07 18:03:39;;;;;;;20.52;11.50;;;;;;;;;;6257835;28;20039;-75
2024/03/07 18:06:46;;;;;;;21.88;11.60;;;;;;;;;;6276055;28;20049;-75
2024/03/07 18:09:48;;;;;;;20.05;11.55;;;;;;;;;;6279246;28;20045;-75
2024/03/07 18:12:52;;;;;;;21.27;11.93;;;;;;;;;;6257924;28;20053;-75
2024/03/07 18:15:55;;;;;;;19.88;11.32;;;;;;;;;;6272423;28;20057;-76
2024/03/07 18:18:58;;;;;;;21.42;13.98;;;;;;;;;;6259469;28;20390;-76
2024/03/07 18:22:00;;;;;;;22.38;11.88;;;;;;;;;;6267667;28;20139;-74